createdAt,value
2019-05-23T00:00:08.459Z,0
2019-05-23T00:05:06.940Z,0
2019-05-23T00:10:06.769Z,0
2019-05-23T00:15:08.551Z,0
2019-05-23T00:19:06.030Z,0
2019-05-23T00:24:07.395Z,0
2019-05-23T00:29:10.249Z,0
2019-05-23T00:34:07.110Z,0
2019-05-23T00:39:06.753Z,0
2019-05-23T00:44:06.873Z,0
2019-05-23T00:49:06.085Z,0
2019-05-23T00:54:07.540Z,0
2019-05-23T00:59:06.778Z,0
2019-05-23T01:03:10.452Z,0
2019-05-23T01:08:09.087Z,0
2019-05-23T01:13:06.497Z,0
2019-05-23T01:18:07.412Z,0
2019-05-23T01:23:06.684Z,0
2019-05-23T01:28:07.896Z,0
2019-05-23T01:33:06.123Z,0
2019-05-23T01:37:06.665Z,0
2019-05-23T01:42:07.068Z,0
2019-05-23T01:47:06.638Z,0
2019-05-23T01:52:07.493Z,0
2019-05-23T01:57:06.159Z,0
2019-05-23T02:02:05.953Z,0
2019-05-23T02:07:07.134Z,0
2019-05-23T02:12:06.792Z,0
2019-05-23T02:16:06.266Z,0
2019-05-23T02:21:07.161Z,0
2019-05-23T02:26:06.793Z,1.67
2019-05-23T02:31:07.578Z,3.33
2019-05-23T02:36:06.116Z,6.67
2019-05-23T02:41:07.289Z,13.33
2019-05-23T02:46:06.787Z,25.83
2019-05-23T02:50:07.299Z,48.33
2019-05-23T02:55:06.556Z,83.33
2019-05-23T03:00:09.324Z,132.5
2019-05-23T03:05:05.947Z,198.33
2019-05-23T03:10:07.602Z,283.33
2019-05-23T03:15:08.436Z,387.5
2019-05-23T03:20:06.965Z,495.83
2019-05-23T03:24:06.441Z,613.33
2019-05-23T03:29:07.460Z,736.67
2019-05-23T03:34:06.086Z,867.5
2019-05-23T03:39:07.463Z,1004.17
2019-05-23T03:44:06.071Z,1146.67
2019-05-23T03:49:07.213Z,1302.5
2019-05-23T03:54:06.864Z,1551.67
2019-05-23T03:58:06.302Z,1857.5
2019-05-23T04:03:07.493Z,2024.17
2019-05-23T04:08:07.273Z,2239.17
2019-05-23T04:13:07.083Z,2500
2019-05-23T04:18:06.199Z,2604.17
2019-05-23T04:23:06.516Z,2886.67
2019-05-23T04:28:06.621Z,3911.67
2019-05-23T04:33:07.540Z,8789.17
2019-05-23T04:38:06.079Z,10799.17
2019-05-23T04:43:06.501Z,11525.83
2019-05-23T04:47:06.532Z,12032.5
2019-05-23T04:52:07.383Z,12665.83
2019-05-23T04:57:06.845Z,12791.67
2019-05-23T05:02:27.398Z,12110.83
2019-05-23T05:07:06.830Z,9322.5
2019-05-23T05:12:06.511Z,10153.33
2019-05-23T05:17:06.583Z,7100
2019-05-23T05:21:06.945Z,6883.33
2019-05-23T05:26:06.493Z,7342.5
2019-05-23T05:31:07.443Z,8210.83
2019-05-23T05:36:05.988Z,9588.33
2019-05-23T05:41:07.326Z,11595
2019-05-23T05:46:06.743Z,6747.5
2019-05-23T05:51:06.576Z,6726.67
2019-05-23T05:55:06.327Z,7522.5
2019-05-23T06:00:12.524Z,26050
2019-05-23T06:05:06.449Z,26769.17
2019-05-23T06:10:06.578Z,19441.67
2019-05-23T06:15:07.473Z,12614.17
2019-05-23T06:20:06.715Z,12958.33
2019-05-23T06:25:06.270Z,17674.17
2019-05-23T06:29:07.525Z,25149.17
2019-05-23T06:34:06.750Z,29183.33
2019-05-23T06:35:06.667Z,29183.33
2019-05-23T06:39:07.186Z,29882.5
2019-05-23T06:44:06.621Z,25376.67
2019-05-23T06:49:06.884Z,19209.17
2019-05-23T06:54:06.491Z,21945.83
2019-05-23T06:59:07.329Z,31976.67
2019-05-23T07:04:06.692Z,37004.16
2019-05-23T07:09:08.005Z,35742.5
2019-05-23T07:13:06.763Z,43153.33
2019-05-23T07:18:06.797Z,37245.83
2019-05-23T07:23:06.315Z,46915
2019-05-23T07:28:07.145Z,40396.66
2019-05-23T07:33:06.201Z,43955.83
2019-05-23T07:38:07.083Z,41332.5
2019-05-23T07:42:06.937Z,40463.33
2019-05-23T07:47:06.015Z,40290.83
2019-05-23T07:52:06.927Z,36451.66
2019-05-23T07:57:06.387Z,37175
2019-05-23T08:02:06.889Z,39490.83
2019-05-23T08:07:06.708Z,35390
2019-05-23T08:11:07.388Z,33989.16
2019-05-23T08:16:06.787Z,34755.83
2019-05-23T08:21:06.693Z,36390
2019-05-23T08:26:06.240Z,43020
2019-05-23T08:31:06.735Z,38348.33
2019-05-23T08:36:06.186Z,51361.66
2019-05-23T08:41:06.629Z,49413.33
2019-05-23T08:45:07.980Z,48195.83
2019-05-23T08:50:07.007Z,47891.66
2019-05-23T08:55:06.538Z,48287.5
2019-05-23T09:00:09.604Z,45175
2019-05-23T09:05:07.457Z,52322.5
2019-05-23T09:10:06.458Z,54404.16
2019-05-23T09:15:11.022Z,51308.33
2019-05-23T09:19:07.009Z,49892.5
2019-05-23T09:24:06.409Z,49363.33
2019-05-23T09:29:07.191Z,54612.5
2019-05-23T09:34:06.571Z,53095
2019-05-23T09:39:07.686Z,51828.33
2019-05-23T09:44:06.218Z,54612.5
2019-05-23T09:49:11.592Z,51015
2019-05-23T09:53:06.407Z,54612.5
2019-05-23T09:58:07.291Z,53719.16
2019-05-23T10:03:06.434Z,54612.5
2019-05-23T10:08:07.167Z,52618.33
2019-05-23T10:13:05.967Z,48051.66
2019-05-23T10:18:06.677Z,44959.16
2019-05-23T10:22:06.448Z,54612.5
2019-05-23T10:27:07.176Z,54612.5
2019-05-23T10:32:05.975Z,54612.5
2019-05-23T10:37:06.873Z,54612.5
2019-05-23T10:42:06.896Z,54612.5
2019-05-23T10:47:06.932Z,48975.83
2019-05-23T10:51:07.312Z,51539.16
2019-05-23T10:56:06.982Z,44472.5
2019-05-23T11:01:06.431Z,44846.66
2019-05-23T11:06:17.499Z,47292.5
2019-05-23T11:11:06.876Z,50018.33
2019-05-23T11:16:06.495Z,48767.5
2019-05-23T11:21:07.294Z,49031.66
2019-05-23T11:26:06.808Z,52208.33
2019-05-23T11:31:06.639Z,42262.5
2019-05-23T11:35:07.021Z,40365
2019-05-23T11:40:06.871Z,44242.5
2019-05-23T11:45:08.055Z,54612.5
2019-05-23T11:50:05.915Z,51823.33
2019-05-23T11:55:06.911Z,45305.83
2019-05-23T12:00:07.725Z,50374.16
2019-05-23T12:04:07.349Z,46753.33
2019-05-23T12:09:07.174Z,49230.83
2019-05-23T12:14:07.110Z,48801.66
2019-05-23T12:19:06.460Z,51940
2019-05-23T12:24:07.171Z,54612.5
2019-05-23T12:29:06.688Z,53335
2019-05-23T12:34:06.619Z,54612.5
2019-05-23T12:38:06.930Z,50013.33
2019-05-23T12:43:07.423Z,48440.83
2019-05-23T12:48:07.631Z,47825
2019-05-23T12:53:07.473Z,52478.33
2019-05-23T12:58:06.641Z,54612.5
2019-05-23T13:03:06.056Z,52772.5
2019-05-23T13:08:07.499Z,54612.5
2019-05-23T13:12:06.219Z,43120
2019-05-23T13:17:06.070Z,54612.5
2019-05-23T13:22:07.448Z,51854.16
2019-05-23T13:27:07.475Z,54612.5
2019-05-23T13:32:06.869Z,49715
2019-05-23T13:37:06.473Z,42846.66
2019-05-23T13:42:06.435Z,50850.83
2019-05-23T13:46:06.921Z,47488.33
2019-05-23T13:51:07.285Z,44215
2019-05-23T13:56:07.134Z,51479.16
2019-05-23T14:01:10.522Z,38704.16
2019-05-23T14:06:06.082Z,40560.83
2019-05-23T14:11:06.676Z,42988.33
2019-05-23T14:16:07.281Z,39159.16
2019-05-23T14:20:07.419Z,37172.5
2019-05-23T14:25:06.866Z,40409.16
2019-05-23T14:30:15.902Z,40695
2019-05-23T14:35:06.707Z,51406.66
2019-05-23T14:40:06.608Z,46300.83
2019-05-23T14:45:09.523Z,49729.16
2019-05-23T14:50:06.931Z,44086.66
2019-05-23T14:55:11.372Z,41626.66
2019-05-23T14:59:06.777Z,36763.33
2019-05-23T15:04:06.076Z,34368.33
2019-05-23T15:09:09.835Z,34118.33
2019-05-23T15:14:06.720Z,34770.83
2019-05-23T15:19:06.792Z,34678.33
2019-05-23T15:24:06.512Z,33136.66
2019-05-23T15:28:06.183Z,30614.17
2019-05-23T15:33:06.234Z,31550.83
2019-05-23T15:38:07.502Z,26457.5
2019-05-23T15:43:10.785Z,23713.33
2019-05-23T15:48:05.928Z,10885
2019-05-23T15:53:06.108Z,19114.17
2019-05-23T15:58:07.199Z,10785.83
2019-05-23T16:02:06.736Z,21677.5
2019-05-23T16:07:06.178Z,19085
2019-05-23T16:12:07.632Z,10551.67
2019-05-23T16:17:07.415Z,23277.5
2019-05-23T16:22:07.560Z,19821.67
2019-05-23T16:27:06.132Z,19920.83
2019-05-23T16:31:06.331Z,15355
2019-05-23T16:36:06.495Z,18095
2019-05-23T16:41:06.746Z,13596.67
2019-05-23T16:46:06.661Z,17144.17
2019-05-23T16:51:06.267Z,19516.67
2019-05-23T16:56:07.490Z,18047.5
2019-05-23T17:01:07.014Z,17320.83
2019-05-23T17:06:06.497Z,14848.33
2019-05-23T17:11:06.843Z,9680
2019-05-23T17:15:07.307Z,12496.67
2019-05-23T17:22:04.905Z,11067.5
2019-05-23T17:25:06.679Z,10709.17
2019-05-23T17:30:08.577Z,9338.33
2019-05-23T17:35:06.344Z,7960.83
2019-05-23T17:40:21.872Z,4626.67
2019-05-23T17:45:08.960Z,3602.5
2019-05-23T17:49:07.864Z,3205
2019-05-23T17:54:06.989Z,3044.17
2019-05-23T17:55:06.353Z,3044.17
2019-05-23T17:59:06.778Z,3133.33
2019-05-23T18:04:07.680Z,2989.17
2019-05-23T18:09:07.776Z,3493.33
2019-05-23T18:14:06.295Z,2582.5
2019-05-23T18:19:06.803Z,2452.5
2019-05-23T18:24:07.106Z,2068.33
2019-05-23T18:29:07.541Z,1540.83
2019-05-23T18:33:07.993Z,1266.67
2019-05-23T18:38:06.254Z,1085.83
2019-05-23T18:43:06.994Z,876.67
2019-05-23T18:48:06.706Z,674.17
2019-05-23T18:53:07.041Z,505
2019-05-23T18:58:07.490Z,363.33
2019-05-23T19:02:06.383Z,250
2019-05-23T19:07:09.762Z,171.67
2019-05-23T19:12:06.588Z,118.33
2019-05-23T19:17:07.161Z,73.33
2019-05-23T19:22:08.000Z,42.5
2019-05-23T19:27:06.982Z,23.33
2019-05-23T19:32:06.628Z,12.5
2019-05-23T19:37:07.105Z,6.67
2019-05-23T19:41:06.975Z,3.33
2019-05-23T19:46:07.661Z,1.67
2019-05-23T19:51:05.973Z,0
2019-05-23T19:56:06.913Z,0
2019-05-23T20:01:06.628Z,0
2019-05-23T20:06:06.765Z,0
2019-05-23T20:10:06.726Z,0
2019-05-23T20:15:07.799Z,0
2019-05-23T20:20:07.341Z,0
2019-05-23T20:25:06.821Z,0
2019-05-23T20:30:07.967Z,0
2019-05-23T20:35:06.399Z,0
2019-05-23T20:40:06.682Z,0
2019-05-23T20:45:07.339Z,0
2019-05-23T20:49:07.509Z,0
2019-05-23T20:54:06.762Z,0
2019-05-23T20:59:07.000Z,0
2019-05-23T21:04:07.047Z,0
2019-05-23T21:09:07.397Z,0
2019-05-23T21:14:06.849Z,0
2019-05-23T21:19:07.495Z,0
2019-05-23T21:24:06.122Z,0
2019-05-23T21:29:07.223Z,0
2019-05-23T21:33:07.248Z,0
2019-05-23T21:38:07.425Z,0
2019-05-23T21:43:07.224Z,0
2019-05-23T21:48:07.578Z,0
2019-05-23T21:53:06.958Z,0
2019-05-23T21:58:07.067Z,0
2019-05-23T22:03:05.918Z,0
2019-05-23T22:07:07.069Z,0
2019-05-23T22:12:06.593Z,0
2019-05-23T22:17:07.516Z,0
2019-05-23T22:22:06.407Z,0
2019-05-23T22:27:06.983Z,0
2019-05-23T22:32:06.856Z,0
2019-05-23T22:37:07.396Z,0
2019-05-23T22:41:06.628Z,0
2019-05-23T22:46:07.270Z,0
2019-05-23T22:51:05.910Z,0
2019-05-23T22:56:06.783Z,0
2019-05-23T23:01:07.078Z,0
2019-05-23T23:06:06.677Z,0
2019-05-23T23:11:07.097Z,0
2019-05-23T23:15:07.963Z,0
2019-05-23T23:20:06.625Z,0
2019-05-23T23:25:07.559Z,0
2019-05-23T23:30:07.078Z,0
2019-05-23T23:35:07.363Z,0
2019-05-23T23:40:06.397Z,0
2019-05-23T23:45:08.350Z,0
2019-05-23T23:49:06.719Z,0
2019-05-23T23:54:06.619Z,0
2019-05-23T23:59:07.293Z,0
